sensor_id;sensor_type;location;lat;lon;timestamp;temperature;humidity
64634;DHT22;51043;52.406;9.690;2022-08-03T00:01:55;18.70;99.90
64634;DHT22;51043;52.406;9.690;2022-08-03T00:04:22;18.60;99.90
64634;DHT22;51043;52.406;9.690;2022-08-03T00:06:49;18.60;99.90
64634;DHT22;51043;52.406;9.690;2022-08-03T00:09:16;18.50;99.90
64634;DHT22;51043;52.406;9.690;2022-08-03T00:11:43;18.50;99.90
64634;DHT22;51043;52.406;9.690;2022-08-03T00:14:09;18.50;99.90
64634;DHT22;51043;52.406;9.690;2022-08-03T00:16:36;18.40;99.90
64634;DHT22;51043;52.406;9.690;2022-08-03T00:19:03;18.40;99.90
64634;DHT22;51043;52.406;9.690;2022-08-03T00:21:30;18.40;99.90
64634;DHT22;51043;52.406;9.690;2022-08-03T00:23:58;18.30;99.90
64634;DHT22;51043;52.406;9.690;2022-08-03T00:26:27;18.30;99.90
64634;DHT22;51043;52.406;9.690;2022-08-03T00:28:54;18.20;99.90
64634;DHT22;51043;52.406;9.690;2022-08-03T00:31:21;18.20;99.90
64634;DHT22;51043;52.406;9.690;2022-08-03T00:33:48;18.20;99.90
64634;DHT22;51043;52.406;9.690;2022-08-03T00:36:14;18.20;99.90
64634;DHT22;51043;52.406;9.690;2022-08-03T00:38:41;18.20;99.90
64634;DHT22;51043;52.406;9.690;2022-08-03T00:41:08;18.10;99.90
64634;DHT22;51043;52.406;9.690;2022-08-03T00:43:35;18.10;99.90
64634;DHT22;51043;52.406;9.690;2022-08-03T00:46:02;18.10;99.90
64634;DHT22;51043;52.406;9.690;2022-08-03T00:48:29;18.00;99.90
64634;DHT22;51043;52.406;9.690;2022-08-03T00:51:02;18.00;99.90
64634;DHT22;51043;52.406;9.690;2022-08-03T00:53:29;18.00;99.90
64634;DHT22;51043;52.406;9.690;2022-08-03T00:55:57;17.90;99.90
64634;DHT22;51043;52.406;9.690;2022-08-03T00:58:26;17.90;99.90
64634;DHT22;51043;52.406;9.690;2022-08-03T01:00:53;17.90;99.90
64634;DHT22;51043;52.406;9.690;2022-08-03T01:03:20;17.90;99.90
64634;DHT22;51043;52.406;9.690;2022-08-03T01:06:10;17.90;99.90
64634;DHT22;51043;52.406;9.690;2022-08-03T01:09:08;17.90;99.90
64634;DHT22;51043;52.406;9.690;2022-08-03T01:11:48;17.80;99.90
64634;DHT22;51043;52.406;9.690;2022-08-03T01:14:22;17.80;99.90
64634;DHT22;51043;52.406;9.690;2022-08-03T01:16:56;17.80;99.90
64634;DHT22;51043;52.406;9.690;2022-08-03T01:25:05;17.70;99.90
64634;DHT22;51043;52.406;9.690;2022-08-03T01:28:08;17.70;99.90
64634;DHT22;51043;52.406;9.690;2022-08-03T01:30:40;17.60;99.90
64634;DHT22;51043;52.406;9.690;2022-08-03T01:33:20;17.60;99.90
64634;DHT22;51043;52.406;9.690;2022-08-03T01:36:03;17.60;99.90
64634;DHT22;51043;52.406;9.690;2022-08-03T01:38:33;17.50;99.90
64634;DHT22;51043;52.406;9.690;2022-08-03T01:41:04;17.50;99.90
64634;DHT22;51043;52.406;9.690;2022-08-03T01:43:33;17.50;99.90
64634;DHT22;51043;52.406;9.690;2022-08-03T01:46:04;17.50;99.90
64634;DHT22;51043;52.406;9.690;2022-08-03T01:48:33;17.50;99.90
64634;DHT22;51043;52.406;9.690;2022-08-03T01:51:03;17.50;99.90
64634;DHT22;51043;52.406;9.690;2022-08-03T01:53:32;17.50;99.90
64634;DHT22;51043;52.406;9.690;2022-08-03T01:56:01;17.50;99.90
64634;DHT22;51043;52.406;9.690;2022-08-03T01:58:31;17.40;99.90
64634;DHT22;51043;52.406;9.690;2022-08-03T02:01:04;17.40;99.90
64634;DHT22;51043;52.406;9.690;2022-08-03T02:03:36;17.50;99.90
64634;DHT22;51043;52.406;9.690;2022-08-03T02:06:09;17.40;99.90
64634;DHT22;51043;52.406;9.690;2022-08-03T02:08:51;17.30;99.90
64634;DHT22;51043;52.406;9.690;2022-08-03T02:11:19;17.30;99.90
64634;DHT22;51043;52.406;9.690;2022-08-03T02:13:47;17.30;99.90
64634;DHT22;51043;52.406;9.690;2022-08-03T02:16:17;17.30;99.90
64634;DHT22;51043;52.406;9.690;2022-08-03T02:18:45;17.20;99.90
64634;DHT22;51043;52.406;9.690;2022-08-03T02:21:14;17.20;99.90
64634;DHT22;51043;52.406;9.690;2022-08-03T02:23:41;17.20;99.90
64634;DHT22;51043;52.406;9.690;2022-08-03T02:26:11;17.20;99.90
64634;DHT22;51043;52.406;9.690;2022-08-03T02:28:45;17.20;99.90
64634;DHT22;51043;52.406;9.690;2022-08-03T02:31:18;17.20;99.90
64634;DHT22;51043;52.406;9.690;2022-08-03T02:33:56;17.10;99.90
64634;DHT22;51043;52.406;9.690;2022-08-03T02:37:12;17.20;99.90
64634;DHT22;51043;52.406;9.690;2022-08-03T02:40:32;17.20;99.90
64634;DHT22;51043;52.406;9.690;2022-08-03T02:43:26;17.20;99.90
64634;DHT22;51043;52.406;9.690;2022-08-03T02:46:48;17.20;99.90
64634;DHT22;51043;52.406;9.690;2022-08-03T02:50:16;17.20;99.90
64634;DHT22;51043;52.406;9.690;2022-08-03T02:52:45;17.20;99.90
64634;DHT22;51043;52.406;9.690;2022-08-03T02:55:14;17.20;99.90
64634;DHT22;51043;52.406;9.690;2022-08-03T02:57:42;17.20;99.90
64634;DHT22;51043;52.406;9.690;2022-08-03T03:00:11;17.20;99.90
64634;DHT22;51043;52.406;9.690;2022-08-03T03:02:40;17.10;99.90
64634;DHT22;51043;52.406;9.690;2022-08-03T03:05:08;17.10;99.90
64634;DHT22;51043;52.406;9.690;2022-08-03T03:07:36;17.10;99.90
64634;DHT22;51043;52.406;9.690;2022-08-03T03:10:07;17.10;99.90
64634;DHT22;51043;52.406;9.690;2022-08-03T03:12:36;17.10;99.90
64634;DHT22;51043;52.406;9.690;2022-08-03T03:15:07;17.10;99.90
64634;DHT22;51043;52.406;9.690;2022-08-03T03:17:35;17.10;99.90
64634;DHT22;51043;52.406;9.690;2022-08-03T03:20:03;17.20;99.90
64634;DHT22;51043;52.406;9.690;2022-08-03T03:22:33;17.10;99.90
64634;DHT22;51043;52.406;9.690;2022-08-03T03:25:01;17.00;99.90
64634;DHT22;51043;52.406;9.690;2022-08-03T03:27:29;17.00;99.90
64634;DHT22;51043;52.406;9.690;2022-08-03T03:29:57;17.00;99.90
64634;DHT22;51043;52.406;9.690;2022-08-03T03:32:49;17.00;99.90
64634;DHT22;51043;52.406;9.690;2022-08-03T03:35:18;17.10;99.90
64634;DHT22;51043;52.406;9.690;2022-08-03T03:37:45;17.00;99.90
64634;DHT22;51043;52.406;9.690;2022-08-03T03:40:13;17.00;99.90
64634;DHT22;51043;52.406;9.690;2022-08-03T03:42:40;17.00;99.90
64634;DHT22;51043;52.406;9.690;2022-08-03T03:45:08;17.10;99.90
64634;DHT22;51043;52.406;9.690;2022-08-03T03:47:35;16.90;99.90
64634;DHT22;51043;52.406;9.690;2022-08-03T03:50:04;17.00;99.90
64634;DHT22;51043;52.406;9.690;2022-08-03T03:52:32;16.90;99.90
64634;DHT22;51043;52.406;9.690;2022-08-03T03:54:59;16.90;99.90
64634;DHT22;51043;52.406;9.690;2022-08-03T03:57:27;16.90;99.90
64634;DHT22;51043;52.406;9.690;2022-08-03T03:59:55;16.90;99.90
64634;DHT22;51043;52.406;9.690;2022-08-03T04:02:22;17.00;99.90
64634;DHT22;51043;52.406;9.690;2022-08-03T04:04:49;17.00;99.90
64634;DHT22;51043;52.406;9.690;2022-08-03T04:07:55;17.10;99.90
64634;DHT22;51043;52.406;9.690;2022-08-03T04:10:46;17.10;99.90
64634;DHT22;51043;52.406;9.690;2022-08-03T04:13:36;17.10;99.90
64634;DHT22;51043;52.406;9.690;2022-08-03T04:16:09;17.20;99.90
64634;DHT22;51043;52.406;9.690;2022-08-03T04:18:39;17.30;99.90
64634;DHT22;51043;52.406;9.690;2022-08-03T04:21:10;17.20;99.90
64634;DHT22;51043;52.406;9.690;2022-08-03T04:23:41;17.20;99.90
64634;DHT22;51043;52.406;9.690;2022-08-03T04:26:11;17.40;99.90
64634;DHT22;51043;52.406;9.690;2022-08-03T04:28:40;17.40;99.90
64634;DHT22;51043;52.406;9.690;2022-08-03T04:31:09;17.50;99.90
64634;DHT22;51043;52.406;9.690;2022-08-03T04:33:37;17.60;99.90
64634;DHT22;51043;52.406;9.690;2022-08-03T04:36:08;17.70;99.90
64634;DHT22;51043;52.406;9.690;2022-08-03T04:38:38;17.80;99.90
64634;DHT22;51043;52.406;9.690;2022-08-03T04:41:07;17.90;99.90
64634;DHT22;51043;52.406;9.690;2022-08-03T04:43:35;18.20;99.90
64634;DHT22;51043;52.406;9.690;2022-08-03T04:46:06;18.10;99.90
64634;DHT22;51043;52.406;9.690;2022-08-03T04:48:34;18.20;99.90
64634;DHT22;51043;52.406;9.690;2022-08-03T04:51:02;18.50;99.90
64634;DHT22;51043;52.406;9.690;2022-08-03T04:53:31;18.50;99.90
64634;DHT22;51043;52.406;9.690;2022-08-03T04:56:07;18.80;99.90
64634;DHT22;51043;52.406;9.690;2022-08-03T04:58:34;18.90;99.90
64634;DHT22;51043;52.406;9.690;2022-08-03T05:01:01;19.00;99.90
64634;DHT22;51043;52.406;9.690;2022-08-03T05:03:30;19.20;99.90
64634;DHT22;51043;52.406;9.690;2022-08-03T05:05:57;19.30;99.90
64634;DHT22;51043;52.406;9.690;2022-08-03T05:08:24;19.40;99.90
64634;DHT22;51043;52.406;9.690;2022-08-03T05:10:51;19.60;99.90
64634;DHT22;51043;52.406;9.690;2022-08-03T05:13:18;19.70;99.90
64634;DHT22;51043;52.406;9.690;2022-08-03T05:15:45;19.80;99.90
64634;DHT22;51043;52.406;9.690;2022-08-03T05:18:12;20.00;99.90
64634;DHT22;51043;52.406;9.690;2022-08-03T05:20:40;20.10;99.90
64634;DHT22;51043;52.406;9.690;2022-08-03T05:23:07;20.30;99.90
64634;DHT22;51043;52.406;9.690;2022-08-03T05:25:34;20.40;99.90
64634;DHT22;51043;52.406;9.690;2022-08-03T05:28:02;20.70;99.90
64634;DHT22;51043;52.406;9.690;2022-08-03T05:30:32;20.80;99.90
64634;DHT22;51043;52.406;9.690;2022-08-03T05:33:01;21.00;99.90
64634;DHT22;51043;52.406;9.690;2022-08-03T05:35:32;21.20;99.90
64634;DHT22;51043;52.406;9.690;2022-08-03T05:38:02;21.50;99.90
64634;DHT22;51043;52.406;9.690;2022-08-03T05:41:08;21.70;99.90
64634;DHT22;51043;52.406;9.690;2022-08-03T05:43:40;22.00;99.90
64634;DHT22;51043;52.406;9.690;2022-08-03T05:46:07;22.20;99.90
64634;DHT22;51043;52.406;9.690;2022-08-03T05:48:34;22.40;99.90
64634;DHT22;51043;52.406;9.690;2022-08-03T05:51:04;22.60;99.90
64634;DHT22;51043;52.406;9.690;2022-08-03T05:53:33;22.70;99.90
64634;DHT22;51043;52.406;9.690;2022-08-03T05:56:07;22.90;99.90
64634;DHT22;51043;52.406;9.690;2022-08-03T05:58:34;23.20;99.90
64634;DHT22;51043;52.406;9.690;2022-08-03T06:01:02;23.30;99.90
64634;DHT22;51043;52.406;9.690;2022-08-03T06:03:51;23.50;99.90
64634;DHT22;51043;52.406;9.690;2022-08-03T06:06:23;23.70;99.90
64634;DHT22;51043;52.406;9.690;2022-08-03T06:08:54;23.80;99.90
64634;DHT22;51043;52.406;9.690;2022-08-03T06:11:29;24.00;99.90
64634;DHT22;51043;52.406;9.690;2022-08-03T06:13:57;24.20;99.90
64634;DHT22;51043;52.406;9.690;2022-08-03T06:16:30;24.30;99.90
64634;DHT22;51043;52.406;9.690;2022-08-03T06:19:35;24.50;99.90
64634;DHT22;51043;52.406;9.690;2022-08-03T06:22:23;24.40;99.90
64634;DHT22;51043;52.406;9.690;2022-08-03T06:24:52;24.20;99.90
64634;DHT22;51043;52.406;9.690;2022-08-03T06:27:19;24.20;99.90
64634;DHT22;51043;52.406;9.690;2022-08-03T06:29:46;24.30;99.90
64634;DHT22;51043;52.406;9.690;2022-08-03T06:32:14;24.60;99.90
64634;DHT22;51043;52.406;9.690;2022-08-03T06:34:42;24.90;99.90
64634;DHT22;51043;52.406;9.690;2022-08-03T06:37:09;25.40;99.90
64634;DHT22;51043;52.406;9.690;2022-08-03T06:39:36;25.50;99.90
64634;DHT22;51043;52.406;9.690;2022-08-03T06:42:09;25.80;99.90
64634;DHT22;51043;52.406;9.690;2022-08-03T06:44:37;26.10;99.90
64634;DHT22;51043;52.406;9.690;2022-08-03T06:47:04;26.20;99.90
64634;DHT22;51043;52.406;9.690;2022-08-03T06:49:33;26.30;99.90
64634;DHT22;51043;52.406;9.690;2022-08-03T06:52:00;26.40;99.90
64634;DHT22;51043;52.406;9.690;2022-08-03T06:54:30;26.30;99.90
64634;DHT22;51043;52.406;9.690;2022-08-03T06:57:08;26.30;99.90
64634;DHT22;51043;52.406;9.690;2022-08-03T06:59:37;26.20;99.90
64634;DHT22;51043;52.406;9.690;2022-08-03T07:02:04;26.20;99.90
64634;DHT22;51043;52.406;9.690;2022-08-03T07:04:34;26.50;99.90
64634;DHT22;51043;52.406;9.690;2022-08-03T07:07:03;26.50;99.90
64634;DHT22;51043;52.406;9.690;2022-08-03T07:09:37;26.70;99.90
64634;DHT22;51043;52.406;9.690;2022-08-03T07:12:13;27.10;99.90
64634;DHT22;51043;52.406;9.690;2022-08-03T07:14:40;27.10;99.90
64634;DHT22;51043;52.406;9.690;2022-08-03T07:17:07;27.30;99.90
64634;DHT22;51043;52.406;9.690;2022-08-03T07:19:34;27.40;99.90
64634;DHT22;51043;52.406;9.690;2022-08-03T07:22:10;27.50;99.90
64634;DHT22;51043;52.406;9.690;2022-08-03T07:24:37;27.50;99.90
64634;DHT22;51043;52.406;9.690;2022-08-03T07:27:11;27.80;99.80
64634;DHT22;51043;52.406;9.690;2022-08-03T07:29:38;27.90;99.20
64634;DHT22;51043;52.406;9.690;2022-08-03T07:32:08;28.30;98.30
64634;DHT22;51043;52.406;9.690;2022-08-03T07:34:37;28.80;97.80
64634;DHT22;51043;52.406;9.690;2022-08-03T07:37:10;29.10;95.50
64634;DHT22;51043;52.406;9.690;2022-08-03T07:39:37;29.70;94.80
64634;DHT22;51043;52.406;9.690;2022-08-03T07:42:13;30.40;90.40
64634;DHT22;51043;52.406;9.690;2022-08-03T07:44:41;30.90;86.90
64634;DHT22;51043;52.406;9.690;2022-08-03T07:47:24;31.30;86.70
64634;DHT22;51043;52.406;9.690;2022-08-03T07:49:54;31.50;80.30
64634;DHT22;51043;52.406;9.690;2022-08-03T07:52:22;31.70;78.30
64634;DHT22;51043;52.406;9.690;2022-08-03T07:55:23;32.00;77.00
64634;DHT22;51043;52.406;9.690;2022-08-03T07:58:11;32.10;71.00
64634;DHT22;51043;52.406;9.690;2022-08-03T08:00:41;32.30;70.20
64634;DHT22;51043;52.406;9.690;2022-08-03T08:03:08;32.40;69.50
64634;DHT22;51043;52.406;9.690;2022-08-03T08:05:35;32.90;67.80
64634;DHT22;51043;52.406;9.690;2022-08-03T08:08:03;33.40;66.30
64634;DHT22;51043;52.406;9.690;2022-08-03T08:10:33;33.70;62.70
64634;DHT22;51043;52.406;9.690;2022-08-03T08:13:02;34.10;62.10
64634;DHT22;51043;52.406;9.690;2022-08-03T08:15:30;34.80;58.70
64634;DHT22;51043;52.406;9.690;2022-08-03T08:18:01;35.50;56.90
64634;DHT22;51043;52.406;9.690;2022-08-03T08:20:32;36.20;53.70
64634;DHT22;51043;52.406;9.690;2022-08-03T08:23:02;36.80;53.30
64634;DHT22;51043;52.406;9.690;2022-08-03T08:25:33;37.50;49.00
64634;DHT22;51043;52.406;9.690;2022-08-03T08:28:03;37.70;46.60
64634;DHT22;51043;52.406;9.690;2022-08-03T08:30:34;37.00;47.50
64634;DHT22;51043;52.406;9.690;2022-08-03T08:33:01;36.90;46.90
64634;DHT22;51043;52.406;9.690;2022-08-03T08:35:28;36.90;48.30
64634;DHT22;51043;52.406;9.690;2022-08-03T08:37:55;37.60;46.20
64634;DHT22;51043;52.406;9.690;2022-08-03T08:40:22;37.80;44.40
64634;DHT22;51043;52.406;9.690;2022-08-03T08:42:49;37.90;44.20
64634;DHT22;51043;52.406;9.690;2022-08-03T08:45:24;38.10;42.60
64634;DHT22;51043;52.406;9.690;2022-08-03T08:47:51;38.30;43.10
64634;DHT22;51043;52.406;9.690;2022-08-03T08:50:22;38.30;41.70
64634;DHT22;51043;52.406;9.690;2022-08-03T08:52:49;37.90;41.80
64634;DHT22;51043;52.406;9.690;2022-08-03T08:55:23;37.40;43.00
64634;DHT22;51043;52.406;9.690;2022-08-03T08:57:56;37.00;42.50
64634;DHT22;51043;52.406;9.690;2022-08-03T09:00:24;36.60;44.60
64634;DHT22;51043;52.406;9.690;2022-08-03T09:02:51;36.80;43.10
64634;DHT22;51043;52.406;9.690;2022-08-03T09:05:19;36.90;44.10
64634;DHT22;51043;52.406;9.690;2022-08-03T09:07:50;37.10;43.00
64634;DHT22;51043;52.406;9.690;2022-08-03T09:10:18;37.30;41.70
64634;DHT22;51043;52.406;9.690;2022-08-03T09:12:49;36.50;42.60
64634;DHT22;51043;52.406;9.690;2022-08-03T09:15:28;36.20;43.80
64634;DHT22;51043;52.406;9.690;2022-08-03T09:17:59;36.00;44.10
64634;DHT22;51043;52.406;9.690;2022-08-03T09:20:29;36.80;42.40
64634;DHT22;51043;52.406;9.690;2022-08-03T09:25:40;37.70;40.50
64634;DHT22;51043;52.406;9.690;2022-08-03T09:28:11;37.50;40.40
64634;DHT22;51043;52.406;9.690;2022-08-03T09:30:40;38.00;39.80
64634;DHT22;51043;52.406;9.690;2022-08-03T09:33:12;37.90;38.60
64634;DHT22;51043;52.406;9.690;2022-08-03T09:35:47;37.60;39.70
64634;DHT22;51043;52.406;9.690;2022-08-03T09:38:23;37.20;38.20
64634;DHT22;51043;52.406;9.690;2022-08-03T09:40:54;37.00;39.80
64634;DHT22;51043;52.406;9.690;2022-08-03T09:43:25;37.20;39.60
64634;DHT22;51043;52.406;9.690;2022-08-03T09:46:04;37.50;38.40
64634;DHT22;51043;52.406;9.690;2022-08-03T09:48:33;37.60;40.90
64634;DHT22;51043;52.406;9.690;2022-08-03T09:51:02;38.20;38.70
64634;DHT22;51043;52.406;9.690;2022-08-03T09:53:42;38.60;37.30
64634;DHT22;51043;52.406;9.690;2022-08-03T09:56:10;37.90;36.50
64634;DHT22;51043;52.406;9.690;2022-08-03T09:58:46;37.70;39.50
64634;DHT22;51043;52.406;9.690;2022-08-03T10:01:13;38.20;37.70
64634;DHT22;51043;52.406;9.690;2022-08-03T10:03:40;38.60;37.50
64634;DHT22;51043;52.406;9.690;2022-08-03T10:06:15;38.60;37.20
64634;DHT22;51043;52.406;9.690;2022-08-03T10:08:42;38.90;38.90
64634;DHT22;51043;52.406;9.690;2022-08-03T10:11:09;39.60;36.20
64634;DHT22;51043;52.406;9.690;2022-08-03T10:13:37;40.20;35.60
64634;DHT22;51043;52.406;9.690;2022-08-03T10:16:07;40.50;35.00
64634;DHT22;51043;52.406;9.690;2022-08-03T10:18:39;41.20;33.00
64634;DHT22;51043;52.406;9.690;2022-08-03T10:21:09;41.20;34.00
64634;DHT22;51043;52.406;9.690;2022-08-03T10:23:39;42.10;32.40
64634;DHT22;51043;52.406;9.690;2022-08-03T10:26:11;41.90;32.20
64634;DHT22;51043;52.406;9.690;2022-08-03T10:28:52;40.40;33.60
64634;DHT22;51043;52.406;9.690;2022-08-03T10:31:21;39.80;36.20
64634;DHT22;51043;52.406;9.690;2022-08-03T10:33:51;40.20;35.20
64634;DHT22;51043;52.406;9.690;2022-08-03T10:36:23;40.10;34.40
64634;DHT22;51043;52.406;9.690;2022-08-03T10:38:53;39.50;35.90
64634;DHT22;51043;52.406;9.690;2022-08-03T10:41:22;39.90;35.00
64634;DHT22;51043;52.406;9.690;2022-08-03T10:43:56;40.50;33.20
64634;DHT22;51043;52.406;9.690;2022-08-03T10:46:25;40.60;33.30
64634;DHT22;51043;52.406;9.690;2022-08-03T10:48:53;41.20;32.40
64634;DHT22;51043;52.406;9.690;2022-08-03T10:51:22;41.60;32.50
64634;DHT22;51043;52.406;9.690;2022-08-03T10:53:49;41.70;31.90
64634;DHT22;51043;52.406;9.690;2022-08-03T10:56:40;41.50;32.30
64634;DHT22;51043;52.406;9.690;2022-08-03T11:02:12;40.40;34.80
64634;DHT22;51043;52.406;9.690;2022-08-03T11:04:43;40.90;33.20
64634;DHT22;51043;52.406;9.690;2022-08-03T11:07:23;41.30;32.30
64634;DHT22;51043;52.406;9.690;2022-08-03T11:09:51;42.00;31.30
64634;DHT22;51043;52.406;9.690;2022-08-03T11:12:27;42.40;32.70
64634;DHT22;51043;52.406;9.690;2022-08-03T11:14:56;43.00;30.50
64634;DHT22;51043;52.406;9.690;2022-08-03T11:17:23;42.40;32.10
64634;DHT22;51043;52.406;9.690;2022-08-03T11:19:52;41.70;31.80
64634;DHT22;51043;52.406;9.690;2022-08-03T11:22:20;41.70;32.80
64634;DHT22;51043;52.406;9.690;2022-08-03T11:27:24;41.20;32.80
64634;DHT22;51043;52.406;9.690;2022-08-03T11:30:09;40.70;32.70
64634;DHT22;51043;52.406;9.690;2022-08-03T11:38:07;40.90;32.90
64634;DHT22;51043;52.406;9.690;2022-08-03T11:45:57;42.90;30.00
64634;DHT22;51043;52.406;9.690;2022-08-03T11:48:34;43.00;29.90
64634;DHT22;51043;52.406;9.690;2022-08-03T11:51:03;43.00;29.70
64634;DHT22;51043;52.406;9.690;2022-08-03T11:53:31;42.70;29.30
64634;DHT22;51043;52.406;9.690;2022-08-03T11:56:00;42.20;30.00
64634;DHT22;51043;52.406;9.690;2022-08-03T11:58:28;42.00;32.10
64634;DHT22;51043;52.406;9.690;2022-08-03T12:01:13;42.10;30.10
64634;DHT22;51043;52.406;9.690;2022-08-03T12:03:44;42.40;29.50
64634;DHT22;51043;52.406;9.690;2022-08-03T12:06:13;42.30;32.20
64634;DHT22;51043;52.406;9.690;2022-08-03T12:08:41;42.50;29.60
64634;DHT22;51043;52.406;9.690;2022-08-03T12:11:13;42.70;29.70
64634;DHT22;51043;52.406;9.690;2022-08-03T12:13:43;43.00;28.90
64634;DHT22;51043;52.406;9.690;2022-08-03T12:16:20;42.00;29.40
64634;DHT22;51043;52.406;9.690;2022-08-03T12:18:58;41.70;29.80
64634;DHT22;51043;52.406;9.690;2022-08-03T12:21:27;41.50;30.80
64634;DHT22;51043;52.406;9.690;2022-08-03T12:23:59;41.60;30.00
64634;DHT22;51043;52.406;9.690;2022-08-03T12:26:27;41.60;29.90
64634;DHT22;51043;52.406;9.690;2022-08-03T12:28:55;41.60;29.80
64634;DHT22;51043;52.406;9.690;2022-08-03T12:31:22;42.00;31.70
64634;DHT22;51043;52.406;9.690;2022-08-03T12:34:03;42.60;29.90
64634;DHT22;51043;52.406;9.690;2022-08-03T12:36:34;43.70;28.30
64634;DHT22;51043;52.406;9.690;2022-08-03T12:39:06;44.30;28.50
64634;DHT22;51043;52.406;9.690;2022-08-03T12:41:40;45.40;27.60
64634;DHT22;51043;52.406;9.690;2022-08-03T12:44:11;46.30;26.00
64634;DHT22;51043;52.406;9.690;2022-08-03T12:46:40;45.90;26.10
64634;DHT22;51043;52.406;9.690;2022-08-03T12:49:12;44.90;26.90
64634;DHT22;51043;52.406;9.690;2022-08-03T12:54:22;44.40;28.30
64634;DHT22;51043;52.406;9.690;2022-08-03T12:56:59;45.40;27.00
64634;DHT22;51043;52.406;9.690;2022-08-03T12:59:29;46.30;26.90
64634;DHT22;51043;52.406;9.690;2022-08-03T13:01:56;46.40;25.10
64634;DHT22;51043;52.406;9.690;2022-08-03T13:04:29;45.30;25.80
64634;DHT22;51043;52.406;9.690;2022-08-03T13:07:04;45.70;25.60
64634;DHT22;51043;52.406;9.690;2022-08-03T13:09:52;45.20;25.80
64634;DHT22;51043;52.406;9.690;2022-08-03T13:12:25;44.40;26.50
64634;DHT22;51043;52.406;9.690;2022-08-03T13:14:55;43.90;26.60
64634;DHT22;51043;52.406;9.690;2022-08-03T13:17:23;43.10;27.40
64634;DHT22;51043;52.406;9.690;2022-08-03T13:19:51;42.70;27.20
64634;DHT22;51043;52.406;9.690;2022-08-03T13:22:23;43.30;28.00
64634;DHT22;51043;52.406;9.690;2022-08-03T13:24:55;43.50;26.70
64634;DHT22;51043;52.406;9.690;2022-08-03T13:27:23;43.40;27.40
64634;DHT22;51043;52.406;9.690;2022-08-03T13:29:53;43.10;27.40
64634;DHT22;51043;52.406;9.690;2022-08-03T13:32:21;42.80;27.50
64634;DHT22;51043;52.406;9.690;2022-08-03T13:34:49;42.50;28.30
64634;DHT22;51043;52.406;9.690;2022-08-03T13:37:17;42.50;27.50
64634;DHT22;51043;52.406;9.690;2022-08-03T13:39:43;42.10;27.60
64634;DHT22;51043;52.406;9.690;2022-08-03T13:42:10;42.10;28.20
64634;DHT22;51043;52.406;9.690;2022-08-03T13:44:44;42.50;28.60
64634;DHT22;51043;52.406;9.690;2022-08-03T13:47:14;42.70;27.10
64634;DHT22;51043;52.406;9.690;2022-08-03T13:49:44;42.30;27.10
64634;DHT22;51043;52.406;9.690;2022-08-03T13:52:11;42.50;28.50
64634;DHT22;51043;52.406;9.690;2022-08-03T13:54:38;43.30;29.10
64634;DHT22;51043;52.406;9.690;2022-08-03T13:57:13;43.50;26.60
64634;DHT22;51043;52.406;9.690;2022-08-03T13:59:41;43.40;27.20
64634;DHT22;51043;52.406;9.690;2022-08-03T14:02:09;43.20;26.50
64634;DHT22;51043;52.406;9.690;2022-08-03T14:04:36;43.30;26.90
64634;DHT22;51043;52.406;9.690;2022-08-03T14:07:06;42.60;27.30
64634;DHT22;51043;52.406;9.690;2022-08-03T14:09:42;42.40;27.10
64634;DHT22;51043;52.406;9.690;2022-08-03T14:12:09;42.40;28.10
64634;DHT22;51043;52.406;9.690;2022-08-03T14:14:36;42.60;27.90
64634;DHT22;51043;52.406;9.690;2022-08-03T14:17:06;42.60;26.90
64634;DHT22;51043;52.406;9.690;2022-08-03T14:19:33;42.20;27.80
64634;DHT22;51043;52.406;9.690;2022-08-03T14:22:00;42.40;27.40
64634;DHT22;51043;52.406;9.690;2022-08-03T14:24:27;42.30;28.20
64634;DHT22;51043;52.406;9.690;2022-08-03T14:26:54;42.10;29.50
64634;DHT22;51043;52.406;9.690;2022-08-03T14:29:25;42.70;27.70
64634;DHT22;51043;52.406;9.690;2022-08-03T14:31:52;43.50;26.30
64634;DHT22;51043;52.406;9.690;2022-08-03T14:34:19;43.50;27.10
64634;DHT22;51043;52.406;9.690;2022-08-03T14:36:46;43.90;25.80
64634;DHT22;51043;52.406;9.690;2022-08-03T14:39:13;44.40;26.20
64634;DHT22;51043;52.406;9.690;2022-08-03T14:41:40;44.70;24.90
64634;DHT22;51043;52.406;9.690;2022-08-03T14:44:07;44.20;26.90
64634;DHT22;51043;52.406;9.690;2022-08-03T14:46:34;43.30;26.00
64634;DHT22;51043;52.406;9.690;2022-08-03T14:49:01;42.70;26.60
64634;DHT22;51043;52.406;9.690;2022-08-03T14:51:28;42.80;27.60
64634;DHT22;51043;52.406;9.690;2022-08-03T14:53:55;43.40;27.00
64634;DHT22;51043;52.406;9.690;2022-08-03T14:56:22;43.60;26.60
64634;DHT22;51043;52.406;9.690;2022-08-03T14:58:49;43.10;27.10
64634;DHT22;51043;52.406;9.690;2022-08-03T15:01:19;42.70;27.50
64634;DHT22;51043;52.406;9.690;2022-08-03T15:03:46;42.40;27.50
64634;DHT22;51043;52.406;9.690;2022-08-03T15:06:14;41.10;28.80
64634;DHT22;51043;52.406;9.690;2022-08-03T15:08:44;39.40;30.60
64634;DHT22;51043;52.406;9.690;2022-08-03T15:11:21;37.90;32.40
64634;DHT22;51043;52.406;9.690;2022-08-03T15:13:47;36.60;34.20
64634;DHT22;51043;52.406;9.690;2022-08-03T15:16:21;35.90;36.10
64634;DHT22;51043;52.406;9.690;2022-08-03T15:18:48;35.30;36.50
64634;DHT22;51043;52.406;9.690;2022-08-03T15:21:15;34.70;37.10
64634;DHT22;51043;52.406;9.690;2022-08-03T15:23:47;34.30;39.10
64634;DHT22;51043;52.406;9.690;2022-08-03T15:26:23;34.10;39.60
64634;DHT22;51043;52.406;9.690;2022-08-03T15:28:53;34.00;39.50
64634;DHT22;51043;52.406;9.690;2022-08-03T15:31:23;33.90;40.30
64634;DHT22;51043;52.406;9.690;2022-08-03T15:33:50;33.80;39.20
64634;DHT22;51043;52.406;9.690;2022-08-03T15:36:20;33.80;40.30
64634;DHT22;51043;52.406;9.690;2022-08-03T15:38:47;33.70;41.00
64634;DHT22;51043;52.406;9.690;2022-08-03T15:41:14;33.70;40.20
64634;DHT22;51043;52.406;9.690;2022-08-03T15:43:49;33.60;40.10
64634;DHT22;51043;52.406;9.690;2022-08-03T15:46:18;33.70;40.10
64634;DHT22;51043;52.406;9.690;2022-08-03T15:48:55;33.40;40.10
64634;DHT22;51043;52.406;9.690;2022-08-03T15:51:22;33.40;41.00
64634;DHT22;51043;52.406;9.690;2022-08-03T15:53:52;33.40;41.10
64634;DHT22;51043;52.406;9.690;2022-08-03T15:56:22;33.50;41.50
64634;DHT22;51043;52.406;9.690;2022-08-03T15:58:56;33.50;42.00
64634;DHT22;51043;52.406;9.690;2022-08-03T16:01:24;33.40;41.70
64634;DHT22;51043;52.406;9.690;2022-08-03T16:04:17;33.30;41.20
64634;DHT22;51043;52.406;9.690;2022-08-03T16:06:44;33.30;40.60
64634;DHT22;51043;52.406;9.690;2022-08-03T16:09:14;33.40;41.00
64634;DHT22;51043;52.406;9.690;2022-08-03T16:11:41;33.40;41.30
64634;DHT22;51043;52.406;9.690;2022-08-03T16:14:09;33.50;40.90
64634;DHT22;51043;52.406;9.690;2022-08-03T16:16:36;33.60;40.60
64634;DHT22;51043;52.406;9.690;2022-08-03T16:19:06;33.80;40.70
64634;DHT22;51043;52.406;9.690;2022-08-03T16:21:33;34.00;40.30
64634;DHT22;51043;52.406;9.690;2022-08-03T16:24:00;34.10;39.30